sensor_id;sensor_type;location;lat;lon;timestamp;pressure;altitude;pressure_sealevel;temperature
69857;BMP280;57147;53.582;10.112;2023-12-20T00:00:52;100555.63;;;5.78
69857;BMP280;57147;53.582;10.112;2023-12-20T00:05:53;100558.25;;;5.68
69857;BMP280;57147;53.582;10.112;2023-12-20T00:10:53;100563.03;;;5.71
69857;BMP280;57147;53.582;10.112;2023-12-20T00:15:53;100554.59;;;5.74
69857;BMP280;57147;53.582;10.112;2023-12-20T00:20:54;100557.22;;;5.69
69857;BMP280;57147;53.582;10.112;2023-12-20T00:25:54;100544.31;;;5.67
69857;BMP280;57147;53.582;10.112;2023-12-20T00:30:54;100549.81;;;5.66
69857;BMP280;57147;53.582;10.112;2023-12-20T00:35:54;100553.50;;;5.65
69857;BMP280;57147;53.582;10.112;2023-12-20T00:40:55;100521.34;;;5.53
69857;BMP280;57147;53.582;10.112;2023-12-20T00:45:55;100532.19;;;5.66
69857;BMP280;57147;53.582;10.112;2023-12-20T00:50:55;100524.81;;;5.63
69857;BMP280;57147;53.582;10.112;2023-12-20T00:55:56;100529.81;;;5.60
69857;BMP280;57147;53.582;10.112;2023-12-20T01:00:56;100526.63;;;5.58
69857;BMP280;57147;53.582;10.112;2023-12-20T01:05:56;100527.72;;;5.62
69857;BMP280;57147;53.582;10.112;2023-12-20T01:10:56;100534.28;;;5.59
69857;BMP280;57147;53.582;10.112;2023-12-20T01:15:57;100518.22;;;5.66
69857;BMP280;57147;53.582;10.112;2023-12-20T01:21:02;100525.06;;;5.62
69857;BMP280;57147;53.582;10.112;2023-12-20T01:26:02;100535.59;;;5.57
69857;BMP280;57147;53.582;10.112;2023-12-20T01:31:02;100522.94;;;5.59
69857;BMP280;57147;53.582;10.112;2023-12-20T01:36:03;100524.22;;;5.46
69857;BMP280;57147;53.582;10.112;2023-12-20T01:41:04;100521.81;;;5.34
69857;BMP280;57147;53.582;10.112;2023-12-20T01:46:04;100518.63;;;5.37
69857;BMP280;57147;53.582;10.112;2023-12-20T01:51:05;100500.75;;;5.34
69857;BMP280;57147;53.582;10.112;2023-12-20T01:56:05;100495.41;;;5.19
69857;BMP280;57147;53.582;10.112;2023-12-20T02:01:06;100492.81;;;5.24
69857;BMP280;57147;53.582;10.112;2023-12-20T02:06:07;100492.81;;;5.29
69857;BMP280;57147;53.582;10.112;2023-12-20T02:11:07;100480.72;;;5.28
69857;BMP280;57147;53.582;10.112;2023-12-20T02:16:08;100494.91;;;5.27
69857;BMP280;57147;53.582;10.112;2023-12-20T02:21:09;100474.91;;;5.21
69857;BMP280;57147;53.582;10.112;2023-12-20T02:26:10;100465.88;;;5.12
69857;BMP280;57147;53.582;10.112;2023-12-20T02:31:10;100471.19;;;5.17
69857;BMP280;57147;53.582;10.112;2023-12-20T02:36:10;100455.66;;;5.16
69857;BMP280;57147;53.582;10.112;2023-12-20T02:41:11;100458.56;;;5.19
69857;BMP280;57147;53.582;10.112;2023-12-20T02:46:12;100449.59;;;5.15
69857;BMP280;57147;53.582;10.112;2023-12-20T02:51:12;100445.91;;;5.16
69857;BMP280;57147;53.582;10.112;2023-12-20T02:56:12;100454.38;;;5.23
69857;BMP280;57147;53.582;10.112;2023-12-20T03:01:13;100439.66;;;5.32
69857;BMP280;57147;53.582;10.112;2023-12-20T03:06:17;100430.16;;;5.26
69857;BMP280;57147;53.582;10.112;2023-12-20T03:11:17;100429.91;;;5.28
69857;BMP280;57147;53.582;10.112;2023-12-20T03:16:17;100423.31;;;5.25
69857;BMP280;57147;53.582;10.112;2023-12-20T03:21:18;100407.56;;;5.35
69857;BMP280;57147;53.582;10.112;2023-12-20T03:26:18;100403.88;;;5.36
69857;BMP280;57147;53.582;10.112;2023-12-20T03:31:18;100408.88;;;5.38
69857;BMP280;57147;53.582;10.112;2023-12-20T03:36:19;100389.91;;;5.31
69857;BMP280;57147;53.582;10.112;2023-12-20T03:41:19;100402.00;;;5.22
69857;BMP280;57147;53.582;10.112;2023-12-20T03:46:19;100392.75;;;5.14
69857;BMP280;57147;53.582;10.112;2023-12-20T03:51:19;100388.53;;;5.13
69857;BMP280;57147;53.582;10.112;2023-12-20T03:56:20;100371.22;;;5.22
69857;BMP280;57147;53.582;10.112;2023-12-20T04:01:20;100370.66;;;5.25
69857;BMP280;57147;53.582;10.112;2023-12-20T04:06:20;100368.03;;;5.20
69857;BMP280;57147;53.582;10.112;2023-12-20T04:11:20;100366.19;;;5.21
69857;BMP280;57147;53.582;10.112;2023-12-20T04:16:21;100351.75;;;5.23
69857;BMP280;57147;53.582;10.112;2023-12-20T04:21:21;100352.78;;;5.22
69857;BMP280;57147;53.582;10.112;2023-12-20T04:26:21;100336.44;;;5.15
69857;BMP280;57147;53.582;10.112;2023-12-20T04:31:22;100327.97;;;4.98
69857;BMP280;57147;53.582;10.112;2023-12-20T04:36:22;100308.00;;;5.12
69857;BMP280;57147;53.582;10.112;2023-12-20T04:41:22;100312.75;;;5.15
69857;BMP280;57147;53.582;10.112;2023-12-20T04:46:23;100306.72;;;5.10
69857;BMP280;57147;53.582;10.112;2023-12-20T04:51:23;100298.03;;;5.14
69857;BMP280;57147;53.582;10.112;2023-12-20T04:56:23;100299.06;;;5.08
69857;BMP280;57147;53.582;10.112;2023-12-20T05:01:23;100294.88;;;5.07
69857;BMP280;57147;53.582;10.112;2023-12-20T05:06:24;100291.44;;;5.07
69857;BMP280;57147;53.582;10.112;2023-12-20T05:11:24;100288.53;;;5.13
69857;BMP280;57147;53.582;10.112;2023-12-20T05:16:24;100287.78;;;5.23
69857;BMP280;57147;53.582;10.112;2023-12-20T05:21:24;100280.94;;;5.27
69857;BMP280;57147;53.582;10.112;2023-12-20T05:26:25;100282.25;;;5.29
69857;BMP280;57147;53.582;10.112;2023-12-20T05:31:25;100283.31;;;5.33
69857;BMP280;57147;53.582;10.112;2023-12-20T05:36:26;100294.34;;;5.20
69857;BMP280;57147;53.582;10.112;2023-12-20T05:41:26;100280.66;;;5.28
69857;BMP280;57147;53.582;10.112;2023-12-20T05:46:26;100264.88;;;5.28
69857;BMP280;57147;53.582;10.112;2023-12-20T05:51:26;100268.03;;;5.20
69857;BMP280;57147;53.582;10.112;2023-12-20T05:56:27;100247.22;;;5.14
69857;BMP280;57147;53.582;10.112;2023-12-20T06:01:27;100249.88;;;5.19
69857;BMP280;57147;53.582;10.112;2023-12-20T06:06:27;100241.44;;;5.27
69857;BMP280;57147;53.582;10.112;2023-12-20T06:11:27;100246.19;;;5.20
69857;BMP280;57147;53.582;10.112;2023-12-20T06:16:28;100225.41;;;5.23
69857;BMP280;57147;53.582;10.112;2023-12-20T06:21:28;100229.09;;;5.22
69857;BMP280;57147;53.582;10.112;2023-12-20T06:26:29;100228.06;;;5.23
69857;BMP280;57147;53.582;10.112;2023-12-20T06:31:29;100229.88;;;5.18
69857;BMP280;57147;53.582;10.112;2023-12-20T06:36:30;100223.84;;;5.22
69857;BMP280;57147;53.582;10.112;2023-12-20T06:41:30;100219.88;;;5.20
69857;BMP280;57147;53.582;10.112;2023-12-20T06:46:30;100223.56;;;5.19
69857;BMP280;57147;53.582;10.112;2023-12-20T06:51:31;100228.31;;;5.22
69857;BMP280;57147;53.582;10.112;2023-12-20T06:56:31;100211.19;;;5.19
69857;BMP280;57147;53.582;10.112;2023-12-20T07:01:31;100201.72;;;5.28
69857;BMP280;57147;53.582;10.112;2023-12-20T07:06:31;100197.50;;;5.32
69857;BMP280;57147;53.582;10.112;2023-12-20T07:11:32;100184.34;;;5.32
69857;BMP280;57147;53.582;10.112;2023-12-20T07:16:32;100190.16;;;5.24
69857;BMP280;57147;53.582;10.112;2023-12-20T07:21:32;100177.78;;;5.10
69857;BMP280;57147;53.582;10.112;2023-12-20T07:26:32;100214.88;;;5.28
69857;BMP280;57147;53.582;10.112;2023-12-20T07:31:33;100208.56;;;5.34
69857;BMP280;57147;53.582;10.112;2023-12-20T07:36:33;100202.25;;;5.35
69857;BMP280;57147;53.582;10.112;2023-12-20T07:41:33;100196.44;;;5.38
69857;BMP280;57147;53.582;10.112;2023-12-20T07:46:33;100195.38;;;5.45
69857;BMP280;57147;53.582;10.112;2023-12-20T07:51:34;100193.28;;;5.47
69857;BMP280;57147;53.582;10.112;2023-12-20T07:56:34;100178.00;;;5.49
69857;BMP280;57147;53.582;10.112;2023-12-20T08:01:34;100174.84;;;5.47
69857;BMP280;57147;53.582;10.112;2023-12-20T08:06:35;100175.38;;;5.49
69857;BMP280;57147;53.582;10.112;2023-12-20T08:11:35;100183.78;;;5.51
69857;BMP280;57147;53.582;10.112;2023-12-20T08:16:35;100138.53;;;5.38
69857;BMP280;57147;53.582;10.112;2023-12-20T08:21:35;100161.41;;;5.63
69857;BMP280;57147;53.582;10.112;2023-12-20T08:26:35;100144.03;;;5.62
69857;BMP280;57147;53.582;10.112;2023-12-20T08:31:36;100132.66;;;5.67
69857;BMP280;57147;53.582;10.112;2023-12-20T08:36:36;100135.28;;;5.67
69857;BMP280;57147;53.582;10.112;2023-12-20T08:41:36;100118.63;;;5.82
69857;BMP280;57147;53.582;10.112;2023-12-20T08:46:36;100100.44;;;5.85
69857;BMP280;57147;53.582;10.112;2023-12-20T08:51:37;100124.09;;;5.90
69857;BMP280;57147;53.582;10.112;2023-12-20T08:56:37;100120.41;;;5.96
69857;BMP280;57147;53.582;10.112;2023-12-20T09:01:37;100110.91;;;5.95
69857;BMP280;57147;53.582;10.112;2023-12-20T09:06:37;100110.19;;;5.85
69857;BMP280;57147;53.582;10.112;2023-12-20T09:11:38;100080.97;;;5.76
69857;BMP280;57147;53.582;10.112;2023-12-20T09:16:38;100085.25;;;5.67
69857;BMP280;57147;53.582;10.112;2023-12-20T09:21:38;100097.38;;;5.68
69857;BMP280;57147;53.582;10.112;2023-12-20T09:26:38;100082.94;;;5.60
69857;BMP280;57147;53.582;10.112;2023-12-20T09:31:39;100098.53;;;5.26
69857;BMP280;57147;53.582;10.112;2023-12-20T09:36:39;100096.47;;;5.18
69857;BMP280;57147;53.582;10.112;2023-12-20T09:41:43;100081.22;;;5.10
69857;BMP280;57147;53.582;10.112;2023-12-20T09:46:45;100102.28;;;5.10
69857;BMP280;57147;53.582;10.112;2023-12-20T09:51:46;100112.78;;;5.20
69857;BMP280;57147;53.582;10.112;2023-12-20T09:56:47;100142.25;;;5.17
69857;BMP280;57147;53.582;10.112;2023-12-20T10:01:48;100155.94;;;4.94
69857;BMP280;57147;53.582;10.112;2023-12-20T10:06:51;100155.47;;;4.82
69857;BMP280;57147;53.582;10.112;2023-12-20T10:11:54;100127.03;;;4.84
69857;BMP280;57147;53.582;10.112;2023-12-20T10:17:02;100141.22;;;4.93
69857;BMP280;57147;53.582;10.112;2023-12-20T10:22:04;100185.94;;;4.68
69857;BMP280;57147;53.582;10.112;2023-12-20T10:27:06;100179.59;;;4.69
69857;BMP280;57147;53.582;10.112;2023-12-20T10:32:26;100167.75;;;4.86
69857;BMP280;57147;53.582;10.112;2023-12-20T10:37:27;100158.06;;;4.92
69857;BMP280;57147;53.582;10.112;2023-12-20T10:42:28;100135.97;;;4.93
69857;BMP280;57147;53.582;10.112;2023-12-20T10:47:30;100150.94;;;4.97
69857;BMP280;57147;53.582;10.112;2023-12-20T10:52:32;100152.78;;;4.87
69857;BMP280;57147;53.582;10.112;2023-12-20T10:57:32;100139.63;;;4.97
69857;BMP280;57147;53.582;10.112;2023-12-20T11:02:39;100129.09;;;5.02
69857;BMP280;57147;53.582;10.112;2023-12-20T11:07:47;100110.19;;;4.95
69857;BMP280;57147;53.582;10.112;2023-12-20T11:12:53;100132.78;;;5.16
69857;BMP280;57147;53.582;10.112;2023-12-20T11:17:55;100138.31;;;4.99
69857;BMP280;57147;53.582;10.112;2023-12-20T11:22:55;100155.19;;;4.78
69857;BMP280;57147;53.582;10.112;2023-12-20T11:28:09;100133.59;;;4.66
69857;BMP280;57147;53.582;10.112;2023-12-20T11:33:10;100137.22;;;4.29
69857;BMP280;57147;53.582;10.112;2023-12-20T11:38:10;100125.75;;;3.78
69857;BMP280;57147;53.582;10.112;2023-12-20T11:43:11;100123.16;;;3.83
69857;BMP280;57147;53.582;10.112;2023-12-20T11:48:11;100124.78;;;3.94
69857;BMP280;57147;53.582;10.112;2023-12-20T11:53:12;100118.22;;;4.07
69857;BMP280;57147;53.582;10.112;2023-12-20T11:58:12;100116.44;;;4.18
69857;BMP280;57147;53.582;10.112;2023-12-20T12:03:15;100108.31;;;4.29
69857;BMP280;57147;53.582;10.112;2023-12-20T12:08:16;100114.38;;;4.35
69857;BMP280;57147;53.582;10.112;2023-12-20T12:13:16;100116.47;;;4.43
69857;BMP280;57147;53.582;10.112;2023-12-20T12:18:17;100094.94;;;4.46
69857;BMP280;57147;53.582;10.112;2023-12-20T12:23:23;100097.59;;;4.61
69857;BMP280;57147;53.582;10.112;2023-12-20T12:28:26;100103.91;;;4.76
69857;BMP280;57147;53.582;10.112;2023-12-20T12:33:26;100081.78;;;4.92
69857;BMP280;57147;53.582;10.112;2023-12-20T12:38:26;100071.78;;;4.89
69857;BMP280;57147;53.582;10.112;2023-12-20T12:43:27;100104.34;;;5.33
69857;BMP280;57147;53.582;10.112;2023-12-20T12:48:27;100115.63;;;5.49
69857;BMP280;57147;53.582;10.112;2023-12-20T12:53:27;100111.63;;;5.62
69857;BMP280;57147;53.582;10.112;2023-12-20T12:58:28;100147.44;;;5.53
69857;BMP280;57147;53.582;10.112;2023-12-20T13:03:28;100161.16;;;5.39
69857;BMP280;57147;53.582;10.112;2023-12-20T13:08:29;100175.38;;;5.38
69857;BMP280;57147;53.582;10.112;2023-12-20T13:13:30;100165.13;;;5.37
69857;BMP280;57147;53.582;10.112;2023-12-20T13:18:30;100178.28;;;5.37
69857;BMP280;57147;53.582;10.112;2023-12-20T13:23:31;100169.06;;;5.39
69857;BMP280;57147;53.582;10.112;2023-12-20T13:28:31;100174.31;;;5.45
69857;BMP280;57147;53.582;10.112;2023-12-20T13:33:31;100103.88;;;4.86
69857;BMP280;57147;53.582;10.112;2023-12-20T13:38:32;100200.66;;;5.45
69857;BMP280;57147;53.582;10.112;2023-12-20T13:43:32;100202.22;;;5.46
69857;BMP280;57147;53.582;10.112;2023-12-20T13:48:32;100209.06;;;5.47
69857;BMP280;57147;53.582;10.112;2023-12-20T13:53:32;100239.09;;;5.35
69857;BMP280;57147;53.582;10.112;2023-12-20T13:58:33;100215.91;;;5.37
69857;BMP280;57147;53.582;10.112;2023-12-20T14:03:33;100223.28;;;5.30
69857;BMP280;57147;53.582;10.112;2023-12-20T14:08:34;100216.97;;;5.31
69857;BMP280;57147;53.582;10.112;2023-12-20T14:13:34;100245.41;;;5.14
69857;BMP280;57147;53.582;10.112;2023-12-20T14:18:34;100247.50;;;5.17
69857;BMP280;57147;53.582;10.112;2023-12-20T14:23:35;100275.94;;;5.20
69857;BMP280;57147;53.582;10.112;2023-12-20T14:28:35;100280.13;;;5.16
69857;BMP280;57147;53.582;10.112;2023-12-20T14:33:36;100274.88;;;5.21
69857;BMP280;57147;53.582;10.112;2023-12-20T14:38:36;100284.09;;;5.19
69857;BMP280;57147;53.582;10.112;2023-12-20T14:43:36;100299.06;;;5.13
69857;BMP280;57147;53.582;10.112;2023-12-20T14:48:37;100304.59;;;5.17
69857;BMP280;57147;53.582;10.112;2023-12-20T14:53:37;100314.34;;;5.16
69857;BMP280;57147;53.582;10.112;2023-12-20T14:58:37;100320.66;;;5.15
69857;BMP280;57147;53.582;10.112;2023-12-20T15:03:38;100289.53;;;4.87
69857;BMP280;57147;53.582;10.112;2023-12-20T15:08:38;100323.31;;;5.20
69857;BMP280;57147;53.582;10.112;2023-12-20T15:13:38;100321.19;;;5.27
69857;BMP280;57147;53.582;10.112;2023-12-20T15:18:39;100334.38;;;5.22
69857;BMP280;57147;53.582;10.112;2023-12-20T15:23:39;100327.00;;;5.29
69857;BMP280;57147;53.582;10.112;2023-12-20T15:28:39;100330.16;;;5.26
69857;BMP280;57147;53.582;10.112;2023-12-20T15:33:39;100303.56;;;5.28
69857;BMP280;57147;53.582;10.112;2023-12-20T15:38:40;100301.16;;;5.11
69857;BMP280;57147;53.582;10.112;2023-12-20T15:43:40;100297.53;;;5.22
69857;BMP280;57147;53.582;10.112;2023-12-20T15:48:42;100283.81;;;5.25
69857;BMP280;57147;53.582;10.112;2023-12-20T15:53:42;100284.38;;;5.22
69857;BMP280;57147;53.582;10.112;2023-12-20T15:58:42;100298.56;;;5.16
69857;BMP280;57147;53.582;10.112;2023-12-20T16:03:42;100276.19;;;5.19
69857;BMP280;57147;53.582;10.112;2023-12-20T16:08:43;100297.50;;;5.12
69857;BMP280;57147;53.582;10.112;2023-12-20T16:13:43;100290.13;;;5.14
69857;BMP280;57147;53.582;10.112;2023-12-20T16:18:43;100281.19;;;5.15
69857;BMP280;57147;53.582;10.112;2023-12-20T16:23:44;100277.50;;;5.16
69857;BMP280;57147;53.582;10.112;2023-12-20T16:28:44;100293.81;;;5.13
69857;BMP280;57147;53.582;10.112;2023-12-20T16:33:44;100280.13;;;5.11
69857;BMP280;57147;53.582;10.112;2023-12-20T16:38:44;100272.78;;;5.23
69857;BMP280;57147;53.582;10.112;2023-12-20T16:43:45;100268.81;;;5.11
69857;BMP280;57147;53.582;10.112;2023-12-20T16:48:45;100286.44;;;5.05
69857;BMP280;57147;53.582;10.112;2023-12-20T16:53:45;100289.00;;;3.70
69857;BMP280;57147;53.582;10.112;2023-12-20T16:58:45;100227.16;;;3.15
69857;BMP280;57147;53.582;10.112;2023-12-20T17:03:46;100202.06;;;3.30
69857;BMP280;57147;53.582;10.112;2023-12-20T17:08:46;100163.81;;;3.39
69857;BMP280;57147;53.582;10.112;2023-12-20T17:13:46;100166.06;;;3.57
69857;BMP280;57147;53.582;10.112;2023-12-20T17:18:47;100156.19;;;3.74
69857;BMP280;57147;53.582;10.112;2023-12-20T17:23:47;100150.41;;;3.77
69857;BMP280;57147;53.582;10.112;2023-12-20T17:28:47;100153.09;;;3.82
69857;BMP280;57147;53.582;10.112;2023-12-20T17:33:48;100146.28;;;3.91
69857;BMP280;57147;53.582;10.112;2023-12-20T17:38:48;100133.44;;;4.00
69857;BMP280;57147;53.582;10.112;2023-12-20T17:43:48;100118.22;;;4.07
69857;BMP280;57147;53.582;10.112;2023-12-20T17:48:48;100112.19;;;4.12
69857;BMP280;57147;53.582;10.112;2023-12-20T17:53:49;100099.56;;;4.09
69857;BMP280;57147;53.582;10.112;2023-12-20T17:58:49;100093.81;;;4.17
69857;BMP280;57147;53.582;10.112;2023-12-20T18:03:49;100085.94;;;4.17
69857;BMP280;57147;53.582;10.112;2023-12-20T18:08:49;100084.38;;;4.16
69857;BMP280;57147;53.582;10.112;2023-12-20T18:13:50;100078.09;;;4.22
69857;BMP280;57147;53.582;10.112;2023-12-20T18:18:50;100068.34;;;4.27
69857;BMP280;57147;53.582;10.112;2023-12-20T18:23:50;100075.44;;;4.27
69857;BMP280;57147;53.582;10.112;2023-12-20T18:28:50;100064.97;;;4.32
69857;BMP280;57147;53.582;10.112;2023-12-20T18:33:51;100056.56;;;4.35
69857;BMP280;57147;53.582;10.112;2023-12-20T18:38:51;100052.88;;;4.36
69857;BMP280;57147;53.582;10.112;2023-12-20T18:43:51;100050.00;;;4.38
69857;BMP280;57147;53.582;10.112;2023-12-20T18:48:51;100041.31;;;4.37
69857;BMP280;57147;53.582;10.112;2023-12-20T18:53:52;100045.78;;;4.42
69857;BMP280;57147;53.582;10.112;2023-12-20T18:58:52;100030.28;;;4.45
69857;BMP280;57147;53.582;10.112;2023-12-20T19:03:52;100028.69;;;4.44
69857;BMP280;57147;53.582;10.112;2023-12-20T19:08:52;100020.56;;;4.51
69857;BMP280;57147;53.582;10.112;2023-12-20T19:13:53;100009.50;;;4.59
69857;BMP280;57147;53.582;10.112;2023-12-20T19:18:53;100006.09;;;4.53
69857;BMP280;57147;53.582;10.112;2023-12-20T19:23:54;100008.72;;;4.58
69857;BMP280;57147;53.582;10.112;2023-12-20T19:28:54;99987.69;;;4.58
69857;BMP280;57147;53.582;10.112;2023-12-20T19:33:54;100001.88;;;4.57
69857;BMP280;57147;53.582;10.112;2023-12-20T19:38:54;99950.91;;;4.48
69857;BMP280;57147;53.582;10.112;2023-12-20T19:43:55;99956.69;;;4.65
69857;BMP280;57147;53.582;10.112;2023-12-20T19:48:55;99960.06;;;4.71
69857;BMP280;57147;53.582;10.112;2023-12-20T19:53:55;99944.56;;;4.64
69857;BMP280;57147;53.582;10.112;2023-12-20T19:58:55;99933.53;;;4.68
69857;BMP280;57147;53.582;10.112;2023-12-20T20:03:55;99938.25;;;4.60
69857;BMP280;57147;53.582;10.112;2023-12-20T20:08:56;99916.19;;;4.61
69857;BMP280;57147;53.582;10.112;2023-12-20T20:13:56;99899.88;;;4.59
69857;BMP280;57147;53.582;10.112;2023-12-20T20:18:56;99888.84;;;4.62
69857;BMP280;57147;53.582;10.112;2023-12-20T20:23:56;99848.16;;;4.45
69857;BMP280;57147;53.582;10.112;2023-12-20T20:28:57;99864.13;;;4.63
69857;BMP280;57147;53.582;10.112;2023-12-20T20:33:57;99853.63;;;4.63
69857;BMP280;57147;53.582;10.112;2023-12-20T20:38:58;99833.84;;;4.71
69857;BMP280;57147;53.582;10.112;2023-12-20T20:43:58;99808.34;;;4.82
69857;BMP280;57147;53.582;10.112;2023-12-20T20:48:58;99809.38;;;4.81
69857;BMP280;57147;53.582;10.112;2023-12-20T20:53:59;99772.59;;;4.71
69857;BMP280;57147;53.582;10.112;2023-12-20T20:58:59;99744.25;;;4.68
69857;BMP280;57147;53.582;10.112;2023-12-20T21:03:59;99710.09;;;4.62
69857;BMP280;57147;53.582;10.112;2023-12-20T21:09:00;99690.59;;;4.69
69857;BMP280;57147;53.582;10.112;2023-12-20T21:14:00;99719.28;;;4.99
69857;BMP280;57147;53.582;10.112;2023-12-20T21:19:02;99695.06;;;5.02
69857;BMP280;57147;53.582;10.112;2023-12-20T21:24:03;99672.69;;;5.05
69857;BMP280;57147;53.582;10.112;2023-12-20T21:29:03;99667.84;;;5.17
69857;BMP280;57147;53.582;10.112;2023-12-20T21:34:03;99626.72;;;4.97
69857;BMP280;57147;53.582;10.112;2023-12-20T21:39:04;99634.41;;;5.22
69857;BMP280;57147;53.582;10.112;2023-12-20T21:44:04;99590.88;;;5.06
69857;BMP280;57147;53.582;10.112;2023-12-20T21:49:04;99608.53;;;5.29
69857;BMP280;57147;53.582;10.112;2023-12-20T21:54:04;99584.03;;;5.34
69857;BMP280;57147;53.582;10.112;2023-12-20T21:59:05;99578.91;;;5.43
69857;BMP280;57147;53.582;10.112;2023-12-20T22:04:05;99524.47;;;5.19
69857;BMP280;57147;53.582;10.112;2023-12-20T22:09:05;99544.72;;;5.43
69857;BMP280;57147;53.582;10.112;2023-12-20T22:14:06;99535.91;;;5.52
69857;BMP280;57147;53.582;10.112;2023-12-20T22:19:07;99519.97;;;5.44
69857;BMP280;57147;53.582;10.112;2023-12-20T22:24:08;99523.53;;;5.53
69857;BMP280;57147;53.582;10.112;2023-12-20T22:29:08;99527.66;;;5.59
69857;BMP280;57147;53.582;10.112;2023-12-20T22:34:10;99512.28;;;5.66
69857;BMP280;57147;53.582;10.112;2023-12-20T22:39:11;99504.91;;;5.68
69857;BMP280;57147;53.582;10.112;2023-12-20T22:44:11;99486.75;;;5.66
69857;BMP280;57147;53.582;10.112;2023-12-20T22:49:11;99474.38;;;5.67
69857;BMP280;57147;53.582;10.112;2023-12-20T22:54:12;99453.31;;;5.67
69857;BMP280;57147;53.582;10.112;2023-12-20T22:59:12;99445.63;;;5.70
69857;BMP280;57147;53.582;10.112;2023-12-20T23:04:12;99445.22;;;5.77
69857;BMP280;57147;53.582;10.112;2023-12-20T23:09:14;99445.72;;;5.79
69857;BMP280;57147;53.582;10.112;2023-12-20T23:14:14;99426.72;;;5.82
69857;BMP280;57147;53.582;10.112;2023-12-20T23:19:14;99385.38;;;5.83
69857;BMP280;57147;53.582;10.112;2023-12-20T23:24:14;99373.88;;;5.92
69857;BMP280;57147;53.582;10.112;2023-12-20T23:29:15;99335.47;;;6.05
69857;BMP280;57147;53.582;10.112;2023-12-20T23:34:15;99298.81;;;6.22
69857;BMP280;57147;53.582;10.112;2023-12-20T23:39:15;99258.78;;;6.34
69857;BMP280;57147;53.582;10.112;2023-12-20T23:44:15;99224.78;;;6.46
69857;BMP280;57147;53.582;10.112;2023-12-20T23:49:16;99206.56;;;6.58
69857;BMP280;57147;53.582;10.112;2023-12-20T23:54:16;99173.00;;;6.72
69857;BMP280;57147;53.582;10.112;2023-12-20T23:59:16;99113.69;;;6.61
